Terminal Aerodrome Forecast
Issued by NWS Wilmington, OH

Home | Current Version | Previous Version | Text Only | Print | Product List | Glossary On
Versions: 1 2 3 4 5 6 7 8 9 10 11 12 13 14 15 16 17 18 19 20 21 22 23 24 25 26 27 28 29 30 31 32 33
000
FTUS41 KILN 012300
TAFDAY
TAF
KDAY 012320Z 0200/0224 17012KT 3SM -RA BR OVC006
      TEMPO 0200/0202 1SM RA BR OVC004
     FM020200 23008KT 2SM BR VCSH OVC003
     FM020600 27012G24KT P6SM VCSH OVC012
     FM020800 33016G28KT P6SM VCSH OVC015
      TEMPO 0209/0212 5SM -SHSN
     FM021400 32014G24KT P6SM BKN025
     FM021800 32012G18KT P6SM SCT025=

USA.gov is the U.S. government's official web portal to all federal, state and local government web resources and services.